Time;durP1;ratioP1;P1;durP2;ratioP2;P2;SDS_P1;SDS_P2;PMS_P1;PMS_P2;Temp;Humidity;BMP_temperature;BMP_pressure;BME280_temperature;BME280_humidity;BME280_pressure;Samples;Min_cycle;Max_cycle;Signal;HPM_P1;HPM_P2
2023/12/26 00:01:29;;;;;;;15.80;2.97;;;;;;;;;;5103564;28;20142;-78
2023/12/26 00:03:55;;;;;;;21.55;4.00;;;;;;;;;;5084815;28;20055;-79
2023/12/26 00:06:21;;;;;;;21.08;3.88;;;;;;;;;;5090345;28;20039;-78
2023/12/26 00:08:48;;;;;;;13.00;4.47;;;;;;;;;;5087806;27;20069;-78
2023/12/26 00:11:15;;;;;;;18.13;3.53;;;;;;;;;;5106117;27;20517;-78
2023/12/26 00:13:41;;;;;;;13.40;3.67;;;;;;;;;;5092097;28;20052;-78
2023/12/26 00:16:07;;;;;;;12.00;3.35;;;;;;;;;;5089906;27;20048;-78
2023/12/26 00:18:33;;;;;;;17.25;3.85;;;;;;;;;;5085609;28;20064;-78
2023/12/26 00:20:59;;;;;;;14.00;3.33;;;;;;;;;;5088428;28;20055;-78
2023/12/26 00:23:26;;;;;;;21.95;3.83;;;;;;;;;;5087152;28;20047;-78
2023/12/26 00:25:52;;;;;;;17.20;5.72;;;;;;;;;;5087706;28;20043;-79
2023/12/26 00:28:19;;;;;;;19.38;5.18;;;;;;;;;;5085583;28;20051;-78
2023/12/26 00:30:45;;;;;;;13.77;3.40;;;;;;;;;;5106593;27;20046;-79
2023/12/26 00:33:11;;;;;;;15.05;3.13;;;;;;;;;;5080755;28;20056;-78
2023/12/26 00:35:37;;;;;;;13.68;3.47;;;;;;;;;;5082602;28;20071;-78
2023/12/26 00:38:04;;;;;;;13.70;3.40;;;;;;;;;;5104358;27;20046;-78
2023/12/26 00:40:30;;;;;;;14.40;3.70;;;;;;;;;;5078795;28;20043;-79
2023/12/26 00:42:56;;;;;;;13.18;3.65;;;;;;;;;;5105608;28;20517;-79
2023/12/26 00:45:25;;;;;;;20.58;4.00;;;;;;;;;;5088444;27;20598;-78
2023/12/26 00:47:51;;;;;;;17.98;4.28;;;;;;;;;;5091650;27;20059;-79
2023/12/26 00:50:17;;;;;;;19.20;3.80;;;;;;;;;;5093110;28;20523;-79
2023/12/26 00:52:44;;;;;;;17.60;3.90;;;;;;;;;;5089856;28;20047;-78
2023/12/26 00:55:10;;;;;;;14.95;4.07;;;;;;;;;;5091982;28;20396;-78
2023/12/26 00:57:36;;;;;;;19.38;3.92;;;;;;;;;;5085974;28;20040;-78
2023/12/26 01:00:06;;;;;;;16.77;3.42;;;;;;;;;;5079672;28;20479;-78
2023/12/26 01:02:35;;;;;;;18.33;3.97;;;;;;;;;;5090673;28;20068;-78
2023/12/26 01:05:01;;;;;;;16.55;3.20;;;;;;;;;;5105366;27;20479;-79
2023/12/26 01:07:27;;;;;;;24.15;4.28;;;;;;;;;;5093796;28;20047;-78
2023/12/26 01:09:54;;;;;;;13.45;3.28;;;;;;;;;;5094508;28;20051;-78
2023/12/26 01:12:23;;;;;;;13.18;3.60;;;;;;;;;;5106199;28;20048;-78
2023/12/26 01:14:49;;;;;;;19.05;3.55;;;;;;;;;;5075802;28;20371;-78
2023/12/26 01:17:15;;;;;;;9.80;3.17;;;;;;;;;;5087543;27;20048;-77
2023/12/26 01:19:41;;;;;;;16.45;3.65;;;;;;;;;;5087430;28;20124;-77
2023/12/26 01:22:07;;;;;;;17.58;3.70;;;;;;;;;;5083004;28;20419;-77
2023/12/26 01:24:33;;;;;;;17.05;3.60;;;;;;;;;;5092771;28;20118;-78
2023/12/26 01:26:59;;;;;;;17.80;3.53;;;;;;;;;;5102182;28;20133;-78
2023/12/26 01:29:25;;;;;;;18.75;4.63;;;;;;;;;;5082834;28;20048;-77
2023/12/26 01:31:51;;;;;;;17.92;3.83;;;;;;;;;;5085227;28;20422;-78
2023/12/26 01:34:17;;;;;;;17.08;4.10;;;;;;;;;;5104300;27;20407;-78
2023/12/26 01:36:43;;;;;;;17.10;4.28;;;;;;;;;;5085582;28;20048;-77
2023/12/26 01:39:12;;;;;;;15.35;3.63;;;;;;;;;;5085423;28;20048;-77
2023/12/26 01:41:38;;;;;;;14.43;3.50;;;;;;;;;;5085508;28;20051;-77
2023/12/26 01:44:04;;;;;;;17.95;4.05;;;;;;;;;;5092066;28;20044;-77
2023/12/26 01:46:30;;;;;;;15.32;4.57;;;;;;;;;;5089513;28;20039;-77
2023/12/26 01:48:56;;;;;;;29.50;4.30;;;;;;;;;;5106106;27;20130;-77
2023/12/26 01:51:23;;;;;;;12.98;3.47;;;;;;;;;;5105754;28;20072;-77
2023/12/26 01:53:49;;;;;;;11.48;3.22;;;;;;;;;;5092233;28;20557;-78
2023/12/26 01:56:16;;;;;;;12.90;3.88;;;;;;;;;;5088724;28;20479;-77
2023/12/26 01:58:45;;;;;;;15.90;3.75;;;;;;;;;;5079625;28;20093;-77
2023/12/26 02:01:11;;;;;;;17.58;3.88;;;;;;;;;;5087597;28;20152;-77
2023/12/26 02:03:37;;;;;;;16.65;3.67;;;;;;;;;;5086546;28;20040;-78
2023/12/26 02:06:04;;;;;;;15.10;3.83;;;;;;;;;;5102910;28;20067;-77
2023/12/26 02:08:31;;;;;;;11.23;3.33;;;;;;;;;;5085195;28;20055;-77
2023/12/26 02:10:57;;;;;;;19.55;4.10;;;;;;;;;;5083268;28;20041;-77
2023/12/26 02:13:23;;;;;;;24.92;4.00;;;;;;;;;;5107287;27;20043;-77
2023/12/26 02:15:50;;;;;;;17.65;3.53;;;;;;;;;;5082953;28;20066;-77
2023/12/26 02:18:17;;;;;;;17.77;4.68;;;;;;;;;;5100274;28;20111;-77
2023/12/26 02:20:43;;;;;;;15.57;3.88;;;;;;;;;;5085651;28;20055;-77
2023/12/26 02:23:09;;;;;;;13.02;3.50;;;;;;;;;;5082930;27;20055;-77
2023/12/26 02:25:35;;;;;;;18.55;4.35;;;;;;;;;;5104953;28;20551;-77
2023/12/26 02:28:03;;;;;;;19.80;4.40;;;;;;;;;;5085581;28;20031;-77
2023/12/26 02:30:30;;;;;;;18.25;3.83;;;;;;;;;;5083494;28;20067;-77
2023/12/26 02:33:01;;;;;;;12.45;3.33;;;;;;;;;;5082113;28;20054;-77
2023/12/26 02:35:28;;;;;;;13.05;3.83;;;;;;;;;;5087569;28;20388;-77
2023/12/26 02:37:54;;;;;;;11.50;3.30;;;;;;;;;;5088803;28;20040;-77
2023/12/26 02:40:20;;;;;;;12.15;3.63;;;;;;;;;;5082586;28;20051;-77
2023/12/26 02:42:46;;;;;;;12.27;3.50;;;;;;;;;;5081904;28;20101;-77
2023/12/26 02:45:12;;;;;;;13.82;3.78;;;;;;;;;;5078665;28;20105;-77
2023/12/26 02:47:39;;;;;;;18.15;4.18;;;;;;;;;;5093118;28;20130;-77
2023/12/26 02:50:06;;;;;;;15.35;4.47;;;;;;;;;;5082161;28;20387;-77
2023/12/26 02:52:35;;;;;;;17.77;4.60;;;;;;;;;;5083884;28;20435;-77
2023/12/26 02:55:01;;;;;;;15.38;3.92;;;;;;;;;;5084490;28;20048;-77
2023/12/26 02:57:27;;;;;;;15.75;3.55;;;;;;;;;;5088061;28;20059;-77
2023/12/26 02:59:53;;;;;;;21.02;5.07;;;;;;;;;;5100763;28;20054;-76
2023/12/26 03:02:19;;;;;;;17.10;4.03;;;;;;;;;;5085723;27;20138;-77
2023/12/26 03:04:45;;;;;;;18.33;4.40;;;;;;;;;;5080295;28;20058;-77
2023/12/26 03:07:11;;;;;;;17.20;3.75;;;;;;;;;;5089295;27;20233;-77
2023/12/26 03:09:37;;;;;;;13.48;3.75;;;;;;;;;;5097878;28;20051;-77
2023/12/26 03:12:03;;;;;;;15.57;4.18;;;;;;;;;;5090580;28;20044;-76
2023/12/26 03:14:29;;;;;;;18.38;4.20;;;;;;;;;;5082447;28;20126;-77
2023/12/26 03:16:55;;;;;;;13.20;4.07;;;;;;;;;;5080455;28;20051;-77
2023/12/26 03:19:21;;;;;;;19.38;4.53;;;;;;;;;;5081119;28;20639;-77
2023/12/26 03:21:47;;;;;;;20.23;4.55;;;;;;;;;;5081063;28;20049;-77
2023/12/26 03:24:13;;;;;;;14.70;4.18;;;;;;;;;;5085103;28;20058;-77
2023/12/26 03:26:40;;;;;;;18.40;4.20;;;;;;;;;;5100367;28;20125;-77
2023/12/26 03:29:06;;;;;;;16.10;3.97;;;;;;;;;;5077463;28;20436;-76
2023/12/26 03:31:32;;;;;;;14.98;4.43;;;;;;;;;;5084109;28;20035;-77
2023/12/26 03:33:58;;;;;;;21.45;4.78;;;;;;;;;;5101705;28;20051;-77
2023/12/26 03:36:24;;;;;;;15.55;4.30;;;;;;;;;;5085161;28;20069;-77
2023/12/26 03:38:50;;;;;;;15.38;4.35;;;;;;;;;;5083603;28;20047;-76
2023/12/26 03:41:17;;;;;;;16.42;4.18;;;;;;;;;;5102135;28;20051;-77
2023/12/26 03:43:43;;;;;;;15.25;4.57;;;;;;;;;;5106844;28;20053;-76
2023/12/26 03:46:09;;;;;;;14.60;3.97;;;;;;;;;;5083541;28;20048;-77
2023/12/26 03:48:35;;;;;;;15.63;3.83;;;;;;;;;;5100404;28;20036;-76
2023/12/26 03:51:04;;;;;;;14.77;4.18;;;;;;;;;;5080656;28;20058;-77
2023/12/26 03:53:30;;;;;;;15.52;3.80;;;;;;;;;;5084428;28;20046;-77
2023/12/26 03:55:56;;;;;;;17.25;4.30;;;;;;;;;;5089967;28;20071;-77
2023/12/26 03:58:22;;;;;;;18.92;4.53;;;;;;;;;;5118804;28;20406;-77
2023/12/26 04:00:48;;;;;;;15.02;3.80;;;;;;;;;;5094603;28;20491;-77
2023/12/26 04:03:16;;;;;;;13.25;3.60;;;;;;;;;;5082774;28;20066;-77
2023/12/26 04:05:42;;;;;;;19.05;4.25;;;;;;;;;;5096603;28;20137;-77
2023/12/26 04:08:08;;;;;;;17.98;4.85;;;;;;;;;;5087056;28;20109;-77
2023/12/26 04:10:34;;;;;;;11.13;3.50;;;;;;;;;;5080961;28;20048;-76
2023/12/26 04:13:00;;;;;;;19.55;4.43;;;;;;;;;;5090348;28;20044;-76
2023/12/26 04:15:26;;;;;;;19.05;4.85;;;;;;;;;;5093677;28;20081;-77
2023/12/26 04:17:52;;;;;;;21.60;4.28;;;;;;;;;;5079841;28;20064;-77
2023/12/26 04:20:19;;;;;;;14.50;3.65;;;;;;;;;;5090736;28;20050;-76
2023/12/26 04:22:45;;;;;;;19.45;4.40;;;;;;;;;;5110489;28;20050;-77
2023/12/26 04:25:11;;;;;;;13.57;3.92;;;;;;;;;;5081531;28;20424;-77
2023/12/26 04:27:37;;;;;;;13.85;3.50;;;;;;;;;;5089683;28;20040;-77
2023/12/26 04:30:03;;;;;;;15.38;4.47;;;;;;;;;;5085942;28;20063;-77
2023/12/26 04:32:29;;;;;;;15.02;3.83;;;;;;;;;;5091775;28;20479;-77
2023/12/26 04:34:55;;;;;;;16.40;4.63;;;;;;;;;;5090905;28;20069;-76
2023/12/26 04:37:21;;;;;;;13.88;3.67;;;;;;;;;;5092405;28;20142;-76
2023/12/26 04:39:47;;;;;;;15.05;4.00;;;;;;;;;;5084928;28;20048;-77
2023/12/26 04:42:13;;;;;;;15.20;3.95;;;;;;;;;;5097732;28;20051;-77
2023/12/26 04:44:40;;;;;;;15.07;3.70;;;;;;;;;;5084674;28;20496;-77
2023/12/26 04:47:06;;;;;;;14.35;4.05;;;;;;;;;;5086616;28;20487;-76
2023/12/26 04:49:32;;;;;;;14.35;3.55;;;;;;;;;;5086796;28;20032;-77
2023/12/26 04:51:58;;;;;;;20.92;4.28;;;;;;;;;;5104478;28;20051;-76
2023/12/26 04:54:24;;;;;;;16.17;3.92;;;;;;;;;;5108210;28;20058;-77
2023/12/26 04:56:50;;;;;;;17.80;3.65;;;;;;;;;;5090892;28;20039;-77
2023/12/26 04:59:16;;;;;;;20.20;3.97;;;;;;;;;;5080868;28;20058;-76
2023/12/26 05:01:42;;;;;;;14.05;3.55;;;;;;;;;;5101868;27;20054;-77
2023/12/26 05:04:14;;;;;;;12.80;3.67;;;;;;;;;;5092742;28;20043;-77
2023/12/26 05:06:40;;;;;;;17.48;4.10;;;;;;;;;;5079765;28;20391;-77
2023/12/26 05:09:06;;;;;;;13.82;3.80;;;;;;;;;;5080727;28;20047;-76
2023/12/26 05:11:32;;;;;;;12.43;3.78;;;;;;;;;;5104852;28;20146;-77
2023/12/26 05:13:58;;;;;;;8.65;3.25;;;;;;;;;;5100193;28;20648;-77
2023/12/26 05:16:24;;;;;;;12.65;3.85;;;;;;;;;;5086887;28;20475;-77
2023/12/26 05:18:51;;;;;;;14.65;3.90;;;;;;;;;;5094198;28;20051;-77
2023/12/26 05:21:18;;;;;;;19.80;4.93;;;;;;;;;;5082896;28;20101;-77
2023/12/26 05:23:44;;;;;;;14.95;4.15;;;;;;;;;;5091196;28;20059;-78
2023/12/26 05:26:11;;;;;;;8.82;2.97;;;;;;;;;;5111830;27;20043;-77
2023/12/26 05:28:39;;;;;;;16.40;4.10;;;;;;;;;;5089050;28;20036;-76
2023/12/26 05:31:05;;;;;;;15.75;4.03;;;;;;;;;;5080912;28;20050;-77
2023/12/26 05:33:32;;;;;;;14.85;3.83;;;;;;;;;;5093487;28;20035;-76
2023/12/26 05:35:58;;;;;;;19.88;4.70;;;;;;;;;;5092844;28;20048;-76
2023/12/26 05:38:24;;;;;;;15.25;4.13;;;;;;;;;;5102443;28;20747;-76
2023/12/26 05:40:50;;;;;;;18.23;4.05;;;;;;;;;;5087513;27;20142;-76
2023/12/26 05:43:16;;;;;;;20.00;4.50;;;;;;;;;;5086743;28;20040;-77
2023/12/26 05:45:42;;;;;;;13.30;3.65;;;;;;;;;;5079931;28;20399;-77
2023/12/26 05:48:09;;;;;;;21.95;4.65;;;;;;;;;;5085492;28;20835;-77
2023/12/26 05:50:35;;;;;;;16.27;3.88;;;;;;;;;;5100335;28;20081;-76
2023/12/26 05:53:04;;;;;;;10.80;3.75;;;;;;;;;;5090991;28;20046;-77
2023/12/26 05:55:30;;;;;;;15.82;4.00;;;;;;;;;;5092714;28;20050;-76
2023/12/26 05:57:56;;;;;;;20.50;5.00;;;;;;;;;;5087187;28;20056;-76
2023/12/26 06:00:22;;;;;;;19.20;5.22;;;;;;;;;;5086514;28;20082;-76
2023/12/26 06:02:48;;;;;;;22.70;5.20;;;;;;;;;;5105407;28;20048;-77
2023/12/26 06:05:14;;;;;;;24.13;5.18;;;;;;;;;;5091578;28;20607;-77
2023/12/26 06:07:40;;;;;;;19.30;4.40;;;;;;;;;;5090218;28;20089;-77
2023/12/26 06:10:07;;;;;;;20.40;5.28;;;;;;;;;;5111168;27;20135;-77
2023/12/26 06:12:33;;;;;;;14.60;4.25;;;;;;;;;;5095041;28;20090;-77
2023/12/26 06:14:59;;;;;;;16.38;4.25;;;;;;;;;;5083084;28;20036;-77
2023/12/26 06:17:26;;;;;;;13.77;4.07;;;;;;;;;;5077092;28;20051;-77
2023/12/26 06:19:52;;;;;;;24.90;4.93;;;;;;;;;;5090324;28;20059;-77
2023/12/26 06:22:18;;;;;;;20.38;3.90;;;;;;;;;;5074025;28;20078;-77
2023/12/26 06:24:44;;;;;;;15.25;3.42;;;;;;;;;;5079450;28;20056;-77
2023/12/26 06:27:10;;;;;;;16.98;4.35;;;;;;;;;;5078174;28;20093;-77
2023/12/26 06:29:36;;;;;;;20.67;4.47;;;;;;;;;;5081470;28;20052;-76
2023/12/26 06:32:02;;;;;;;14.23;3.85;;;;;;;;;;5075325;28;20465;-77
2023/12/26 06:34:28;;;;;;;16.98;4.50;;;;;;;;;;5076666;28;20063;-76
2023/12/26 06:36:54;;;;;;;19.55;4.30;;;;;;;;;;5100026;28;20076;-77
2023/12/26 06:39:20;;;;;;;18.08;4.00;;;;;;;;;;5083679;28;20078;-77
2023/12/26 06:41:47;;;;;;;20.08;4.13;;;;;;;;;;5087463;28;20064;-76
2023/12/26 06:44:13;;;;;;;11.45;4.05;;;;;;;;;;5085966;28;20056;-76
2023/12/26 06:46:42;;;;;;;23.70;4.25;;;;;;;;;;5084726;28;20052;-76
2023/12/26 06:49:08;;;;;;;16.05;3.92;;;;;;;;;;5089641;28;20105;-76
2023/12/26 06:51:38;;;;;;;15.30;3.78;;;;;;;;;;5087497;28;20043;-76
2023/12/26 06:54:04;;;;;;;14.27;3.80;;;;;;;;;;5086187;28;20087;-77
2023/12/26 06:56:33;;;;;;;16.15;4.47;;;;;;;;;;5089188;28;20051;-77
2023/12/26 06:58:59;;;;;;;24.00;4.68;;;;;;;;;;5086440;28;20954;-77
2023/12/26 07:01:26;;;;;;;19.48;4.82;;;;;;;;;;5083303;28;20047;-76
2023/12/26 07:03:52;;;;;;;22.30;4.05;;;;;;;;;;5097230;28;20380;-76
2023/12/26 07:06:18;;;;;;;12.52;3.42;;;;;;;;;;5102312;28;20051;-76
2023/12/26 07:08:44;;;;;;;26.27;5.65;;;;;;;;;;5101903;28;20044;-76
2023/12/26 07:11:10;;;;;;;18.88;4.15;;;;;;;;;;5076699;28;20086;-76
2023/12/26 07:13:36;;;;;;;21.98;4.95;;;;;;;;;;5088942;28;20051;-76
2023/12/26 07:16:02;;;;;;;18.33;4.63;;;;;;;;;;5088588;28;20129;-76
2023/12/26 07:18:28;;;;;;;22.25;4.65;;;;;;;;;;5093614;28;20048;-77
2023/12/26 07:20:54;;;;;;;21.40;4.60;;;;;;;;;;5094661;28;20121;-76
2023/12/26 07:23:20;;;;;;;21.95;4.47;;;;;;;;;;5082794;28;20039;-77
2023/12/26 07:25:49;;;;;;;20.38;4.47;;;;;;;;;;5077255;28;20048;-76
2023/12/26 07:28:17;;;;;;;18.77;4.47;;;;;;;;;;5084837;28;20595;-76
2023/12/26 07:30:43;;;;;;;22.50;5.22;;;;;;;;;;5079529;28;20044;-76
2023/12/26 07:33:09;;;;;;;26.83;6.20;;;;;;;;;;5086756;28;20487;-76
2023/12/26 07:35:36;;;;;;;17.02;4.80;;;;;;;;;;5085716;28;20070;-77
2023/12/26 07:38:02;;;;;;;18.30;3.90;;;;;;;;;;5086860;28;20040;-76
2023/12/26 07:40:30;;;;;;;19.63;4.00;;;;;;;;;;5085831;28;20040;-76
2023/12/26 07:42:57;;;;;;;18.52;4.50;;;;;;;;;;5086890;28;20385;-76
2023/12/26 07:45:24;;;;;;;19.75;5.13;;;;;;;;;;5088239;28;20120;-76
2023/12/26 07:47:51;;;;;;;16.33;5.00;;;;;;;;;;5086294;28;20044;-77
2023/12/26 07:50:17;;;;;;;21.98;5.07;;;;;;;;;;5083759;28;20053;-76
2023/12/26 07:52:43;;;;;;;19.70;3.92;;;;;;;;;;5085354;28;20055;-77
2023/12/26 07:55:11;;;;;;;17.33;3.97;;;;;;;;;;5083972;28;20094;-77
2023/12/26 07:57:37;;;;;;;18.45;5.22;;;;;;;;;;5084673;28;20098;-77
2023/12/26 08:00:03;;;;;;;16.52;4.88;;;;;;;;;;5082919;28;20048;-76
2023/12/26 08:02:30;;;;;;;14.38;4.88;;;;;;;;;;5083810;28;20040;-76
2023/12/26 08:04:56;;;;;;;19.98;3.95;;;;;;;;;;5084357;28;20074;-76
2023/12/26 08:07:22;;;;;;;17.27;4.38;;;;;;;;;;5078471;28;20044;-77
2023/12/26 08:09:48;;;;;;;15.18;3.60;;;;;;;;;;5088760;28;20039;-77
2023/12/26 08:12:14;;;;;;;12.13;3.63;;;;;;;;;;5096164;28;20044;-76
2023/12/26 08:14:40;;;;;;;9.02;3.15;;;;;;;;;;5088540;28;20047;-77
2023/12/26 08:17:06;;;;;;;11.02;3.75;;;;;;;;;;5082161;28;20102;-77
2023/12/26 08:19:33;;;;;;;15.98;3.80;;;;;;;;;;5101248;28;20079;-76
2023/12/26 08:21:59;;;;;;;15.98;3.95;;;;;;;;;;5083278;28;20051;-76
2023/12/26 08:24:25;;;;;;;14.32;3.80;;;;;;;;;;5084397;28;20098;-77
2023/12/26 08:26:58;;;;;;;12.25;3.40;;;;;;;;;;5092028;28;20044;-78
2023/12/26 08:29:24;;;;;;;12.18;2.85;;;;;;;;;;5087400;28;20087;-77
2023/12/26 08:31:50;;;;;;;12.93;3.50;;;;;;;;;;5084294;28;20451;-78
2023/12/26 08:34:16;;;;;;;13.68;3.70;;;;;;;;;;5087539;28;20039;-78
2023/12/26 08:36:42;;;;;;;18.23;3.95;;;;;;;;;;5091537;28;20036;-78
2023/12/26 08:39:08;;;;;;;20.60;4.80;;;;;;;;;;5087297;28;20487;-78
2023/12/26 08:41:34;;;;;;;12.95;3.80;;;;;;;;;;5080185;28;20484;-79
2023/12/26 08:44:03;;;;;;;16.90;4.70;;;;;;;;;;5088160;28;20059;-78
2023/12/26 08:46:29;;;;;;;15.48;4.32;;;;;;;;;;5082731;28;20395;-79
2023/12/26 08:48:55;;;;;;;18.70;5.05;;;;;;;;;;5084833;28;20052;-79
2023/12/26 08:51:22;;;;;;;18.92;4.20;;;;;;;;;;5086214;28;20067;-77
2023/12/26 08:53:48;;;;;;;17.10;4.80;;;;;;;;;;5084140;28;20048;-79
2023/12/26 08:56:14;;;;;;;19.30;4.50;;;;;;;;;;5085808;28;20048;-77
2023/12/26 08:58:40;;;;;;;13.73;3.78;;;;;;;;;;5090243;28;20091;-80
2023/12/26 09:01:09;;;;;;;20.50;4.95;;;;;;;;;;5088260;28;20048;-77
2023/12/26 09:03:35;;;;;;;16.73;3.88;;;;;;;;;;5084925;28;20805;-77
2023/12/26 09:06:01;;;;;;;13.70;3.85;;;;;;;;;;5078697;28;20431;-77
2023/12/26 09:08:27;;;;;;;11.75;3.85;;;;;;;;;;5085429;28;20047;-80
2023/12/26 09:10:54;;;;;;;15.75;4.57;;;;;;;;;;5083041;28;20449;-78
2023/12/26 09:13:21;;;;;;;19.48;3.97;;;;;;;;;;5092529;28;20493;-80
2023/12/26 09:15:48;;;;;;;17.88;4.68;;;;;;;;;;5086978;28;20036;-80
2023/12/26 09:18:15;;;;;;;13.38;3.42;;;;;;;;;;5101450;28;20055;-79
2023/12/26 09:20:44;;;;;;;14.52;3.90;;;;;;;;;;5102434;28;20043;-79
2023/12/26 09:23:12;;;;;;;14.20;4.40;;;;;;;;;;5104381;28;20453;-78
2023/12/26 09:25:38;;;;;;;20.33;4.25;;;;;;;;;;5206653;22;20056;-78
2023/12/26 09:28:04;;;;;;;18.38;4.65;;;;;;;;;;5049253;28;20481;-77
2023/12/26 09:30:30;;;;;;;17.42;4.68;;;;;;;;;;5046898;28;20580;-79
2023/12/26 09:32:56;;;;;;;27.83;5.43;;;;;;;;;;5065927;28;20044;-79
2023/12/26 09:35:22;;;;;;;11.68;4.38;;;;;;;;;;5065743;28;20068;-79
2023/12/26 09:37:49;;;;;;;14.80;4.22;;;;;;;;;;5065725;28;20047;-79
2023/12/26 09:40:15;;;;;;;14.95;4.10;;;;;;;;;;5061526;28;20063;-75
2023/12/26 09:42:42;;;;;;;19.85;4.90;;;;;;;;;;5063033;28;20116;-76
2023/12/26 09:45:10;;;;;;;18.20;4.35;;;;;;;;;;5065736;28;20086;-76
2023/12/26 09:47:37;;;;;;;19.30;4.78;;;;;;;;;;5067387;28;20043;-76
2023/12/26 09:50:03;;;;;;;21.05;3.97;;;;;;;;;;5062997;28;20115;-76
2023/12/26 09:52:35;;;;;;;16.90;4.78;;;;;;;;;;5065193;28;20045;-75
2023/12/26 09:55:02;;;;;;;15.90;4.00;;;;;;;;;;5050590;28;20041;-76
2023/12/26 09:57:28;;;;;;;19.02;5.25;;;;;;;;;;5044863;28;20602;-75
2023/12/26 09:59:55;;;;;;;19.27;6.43;;;;;;;;;;5045153;28;20060;-76
2023/12/26 10:02:21;;;;;;;14.60;4.07;;;;;;;;;;5042023;28;20067;-76
2023/12/26 10:04:47;;;;;;;18.75;4.10;;;;;;;;;;5061378;28;20141;-75
2023/12/26 10:07:14;;;;;;;15.63;4.63;;;;;;;;;;5045328;28;20482;-75
2023/12/26 10:09:40;;;;;;;24.40;5.70;;;;;;;;;;5044286;28;20076;-76
2023/12/26 10:12:07;;;;;;;16.40;4.40;;;;;;;;;;5063407;28;20052;-75
2023/12/26 10:14:33;;;;;;;10.07;3.85;;;;;;;;;;5061475;28;20041;-76
2023/12/26 10:16:59;;;;;;;17.20;4.38;;;;;;;;;;5044045;28;20077;-77
2023/12/26 10:19:25;;;;;;;15.38;4.72;;;;;;;;;;5044997;28;20396;-75
2023/12/26 10:21:52;;;;;;;15.70;4.13;;;;;;;;;;5070417;28;20044;-74
2023/12/26 10:24:18;;;;;;;23.83;5.25;;;;;;;;;;5047082;28;20052;-75
2023/12/26 10:26:45;;;;;;;20.10;4.65;;;;;;;;;;5066594;28;20060;-74
2023/12/26 10:29:12;;;;;;;20.80;5.47;;;;;;;;;;5064246;28;20185;-76
2023/12/26 10:31:38;;;;;;;20.77;4.97;;;;;;;;;;5036564;28;20044;-77
2023/12/26 10:34:15;;;;;;;12.55;4.00;;;;;;;;;;5067328;28;20129;-78
2023/12/26 10:36:42;;;;;;;11.68;3.80;;;;;;;;;;5047569;28;20111;-78
2023/12/26 10:39:10;;;;;;;17.38;4.90;;;;;;;;;;5066359;28;20044;-77
2023/12/26 10:41:38;;;;;;;11.02;3.38;;;;;;;;;;5046312;28;20102;-77
2023/12/26 10:44:07;;;;;;;19.67;4.30;;;;;;;;;;5045798;28;20055;-77
2023/12/26 10:46:33;;;;;;;18.95;4.80;;;;;;;;;;5063186;28;20060;-77
2023/12/26 10:49:04;;;;;;;18.48;4.15;;;;;;;;;;5066238;28;20051;-77
2023/12/26 10:51:31;;;;;;;24.58;5.18;;;;;;;;;;5061395;28;20155;-77
2023/12/26 10:54:01;;;;;;;15.35;4.57;;;;;;;;;;5046076;28;20072;-77
2023/12/26 10:56:28;;;;;;;20.30;5.05;;;;;;;;;;5067850;28;20483;-77
2023/12/26 10:58:54;;;;;;;18.40;4.50;;;;;;;;;;5063883;28;20036;-77
2023/12/26 13:52:43;;;;;;;3.25;2.15;;;;;;;;;;5045159;28;20485;-76
2023/12/26 13:55:10;;;;;;;8.20;2.90;;;;;;;;;;5043907;28;20117;-76
2023/12/26 13:57:36;;;;;;;6.90;3.00;;;;;;;;;;5040335;28;20033;-76
2023/12/26 14:00:02;;;;;;;12.10;3.25;;;;;;;;;;5043952;28;20504;-77
2023/12/26 14:02:36;;;;;;;9.40;3.35;;;;;;;;;;5062196;28;20124;-79
2023/12/26 14:05:02;;;;;;;16.98;3.28;;;;;;;;;;5035564;28;20092;-77
2023/12/26 14:07:28;;;;;;;8.55;2.67;;;;;;;;;;5036829;28;20052;-80
2023/12/26 14:09:59;;;;;;;12.15;2.92;;;;;;;;;;5052954;28;20155;-78
2023/12/26 14:12:25;;;;;;;10.82;3.28;;;;;;;;;;5066992;28;20081;-75
2023/12/26 14:14:55;;;;;;;11.35;3.30;;;;;;;;;;5053721;28;20059;-76
2023/12/26 14:17:21;;;;;;;10.90;3.38;;;;;;;;;;5051074;28;20439;-75
2023/12/26 14:19:50;;;;;;;9.65;3.53;;;;;;;;;;5067737;28;20044;-75
2023/12/26 14:22:16;;;;;;;10.50;2.63;;;;;;;;;;5046147;28;20068;-76
2023/12/26 14:24:42;;;;;;;7.20;2.67;;;;;;;;;;5041866;28;20044;-78
2023/12/26 14:27:08;;;;;;;8.55;2.88;;;;;;;;;;5048362;28;20076;-77
2023/12/26 14:29:34;;;;;;;8.05;2.72;;;;;;;;;;5048270;28;20044;-78
2023/12/26 14:32:00;;;;;;;7.90;3.20;;;;;;;;;;5048644;28;20041;-80
2023/12/26 14:34:29;;;;;;;11.50;4.15;;;;;;;;;;5064105;28;21976;-75
2023/12/26 14:36:55;;;;;;;8.55;2.83;;;;;;;;;;5059442;28;20144;-76
2023/12/26 14:39:21;;;;;;;11.00;2.78;;;;;;;;;;5042539;28;20057;-75
2023/12/26 14:41:47;;;;;;;12.30;3.00;;;;;;;;;;5041813;28;20048;-80
2023/12/26 14:44:14;;;;;;;11.80;3.22;;;;;;;;;;5057686;28;20148;-74
2023/12/26 14:46:40;;;;;;;8.98;2.80;;;;;;;;;;5062734;28;20044;-76
2023/12/26 14:49:06;;;;;;;9.23;2.95;;;;;;;;;;5050122;28;20462;-76
2023/12/26 14:51:32;;;;;;;5.97;2.45;;;;;;;;;;5050605;28;20052;-81
2023/12/26 14:53:58;;;;;;;10.70;2.92;;;;;;;;;;5069088;28;20130;-78
2023/12/26 14:56:26;;;;;;;17.08;3.30;;;;;;;;;;5044648;28;21645;-76
2023/12/26 14:58:52;;;;;;;9.35;2.97;;;;;;;;;;5059485;28;20128;-80
2023/12/26 15:01:18;;;;;;;16.02;3.72;;;;;;;;;;5047790;28;20044;-79
2023/12/26 15:03:48;;;;;;;10.07;3.63;;;;;;;;;;5046761;28;20079;-78
2023/12/26 15:06:17;;;;;;;11.65;3.97;;;;;;;;;;5063819;28;20060;-75
2023/12/26 15:08:43;;;;;;;9.50;2.80;;;;;;;;;;5061350;28;20048;-75
2023/12/26 15:11:16;;;;;;;8.27;2.72;;;;;;;;;;5061837;28;20045;-76
2023/12/26 15:13:42;;;;;;;10.18;3.25;;;;;;;;;;5043378;28;20044;-74
2023/12/26 15:16:20;;;;;;;11.35;3.40;;;;;;;;;;5042824;28;20093;-79
2023/12/26 15:18:47;;;;;;;8.38;3.50;;;;;;;;;;5064846;28;20053;-75
2023/12/26 15:21:13;;;;;;;10.18;3.13;;;;;;;;;;5049946;28;20041;-76
2023/12/26 15:23:41;;;;;;;10.93;3.55;;;;;;;;;;5065155;28;20079;-78
2023/12/26 15:26:13;;;;;;;12.40;3.63;;;;;;;;;;5039622;28;20488;-77
2023/12/26 15:28:42;;;;;;;20.07;5.50;;;;;;;;;;5066996;28;20471;-78
2023/12/26 15:31:13;;;;;;;10.15;3.75;;;;;;;;;;5044065;28;20076;-74
2023/12/26 15:33:39;;;;;;;14.65;3.00;;;;;;;;;;5045768;28;20348;-78
2023/12/26 15:36:06;;;;;;;10.38;2.95;;;;;;;;;;5061330;28;20059;-76
2023/12/26 15:38:32;;;;;;;13.98;3.38;;;;;;;;;;5063139;28;20041;-73
2023/12/26 15:40:58;;;;;;;14.43;3.45;;;;;;;;;;5063149;28;20059;-73
2023/12/26 15:43:24;;;;;;;7.72;2.55;;;;;;;;;;5049601;28;20054;-74
2023/12/26 15:45:50;;;;;;;9.82;3.00;;;;;;;;;;5062026;28;20083;-76
2023/12/26 15:48:16;;;;;;;9.13;2.83;;;;;;;;;;5067708;28;20040;-75
2023/12/26 15:50:42;;;;;;;11.45;3.78;;;;;;;;;;5041791;28;20048;-75
2023/12/26 15:53:08;;;;;;;9.07;2.92;;;;;;;;;;5041484;28;20044;-77
2023/12/26 15:55:34;;;;;;;15.82;3.42;;;;;;;;;;5058906;28;20086;-74
2023/12/26 15:58:00;;;;;;;12.35;3.47;;;;;;;;;;5058804;28;20063;-74
2023/12/26 16:00:26;;;;;;;12.15;4.55;;;;;;;;;;5039639;28;20170;-76
2023/12/26 16:02:52;;;;;;;12.48;3.38;;;;;;;;;;5064648;28;20053;-76
2023/12/26 16:05:18;;;;;;;14.20;4.00;;;;;;;;;;5065230;28;20107;-74
2023/12/26 16:07:44;;;;;;;13.48;3.92;;;;;;;;;;5045489;28;20076;-75
2023/12/26 16:10:11;;;;;;;10.35;3.25;;;;;;;;;;5044154;28;20087;-75
2023/12/26 16:12:38;;;;;;;11.60;3.30;;;;;;;;;;5047894;28;20044;-73
2023/12/26 16:15:05;;;;;;;9.88;3.03;;;;;;;;;;5039318;28;20082;-77
2023/12/26 16:17:31;;;;;;;12.30;3.25;;;;;;;;;;5049418;28;20052;-74
2023/12/26 16:19:57;;;;;;;14.32;4.03;;;;;;;;;;5061288;28;20045;-75
2023/12/26 16:22:23;;;;;;;16.13;4.38;;;;;;;;;;5064151;28;20045;-74
2023/12/26 16:24:49;;;;;;;12.85;4.07;;;;;;;;;;5067140;28;20578;-75
2023/12/26 16:27:19;;;;;;;12.32;3.50;;;;;;;;;;5047579;28;20048;-75
2023/12/26 16:29:46;;;;;;;9.75;3.15;;;;;;;;;;5058495;28;20091;-74
2023/12/26 16:32:14;;;;;;;11.57;3.30;;;;;;;;;;5043340;28;20044;-78
2023/12/26 16:34:40;;;;;;;13.75;3.75;;;;;;;;;;5063047;28;20098;-74
2023/12/26 16:37:06;;;;;;;11.57;3.20;;;;;;;;;;5048713;28;20123;-74
2023/12/26 16:39:32;;;;;;;10.30;3.15;;;;;;;;;;5051697;28;20048;-74
2023/12/26 16:42:07;;;;;;;17.05;4.15;;;;;;;;;;5052402;28;20052;-74
2023/12/26 16:44:43;;;;;;;14.82;3.67;;;;;;;;;;5064467;28;20143;-74
2023/12/26 16:47:10;;;;;;;12.23;3.15;;;;;;;;;;5050439;28;20049;-74
2023/12/26 16:49:36;;;;;;;8.10;2.60;;;;;;;;;;5047101;28;20048;-74
2023/12/26 16:52:02;;;;;;;12.52;3.22;;;;;;;;;;5068734;28;20047;-76
2023/12/26 16:54:28;;;;;;;9.68;3.22;;;;;;;;;;5064915;28;20051;-76
2023/12/26 16:56:54;;;;;;;9.18;3.72;;;;;;;;;;5051883;28;20059;-76
2023/12/26 16:59:20;;;;;;;10.02;3.05;;;;;;;;;;5049793;28;20062;-76
2023/12/26 17:01:46;;;;;;;11.57;3.45;;;;;;;;;;5047914;28;20048;-75
2023/12/26 17:04:15;;;;;;;8.40;3.80;;;;;;;;;;5055310;28;20094;-74
2023/12/26 17:06:42;;;;;;;13.00;3.72;;;;;;;;;;5060373;28;20045;-74
2023/12/26 17:09:09;;;;;;;9.73;3.92;;;;;;;;;;5046930;28;20477;-73
2023/12/26 17:11:35;;;;;;;21.23;4.53;;;;;;;;;;5065803;28;20486;-72
2023/12/26 17:14:03;;;;;;;13.65;4.70;;;;;;;;;;5071580;28;20047;-72
2023/12/26 17:16:29;;;;;;;16.40;5.25;;;;;;;;;;5050564;28;20106;-76
2023/12/26 17:18:55;;;;;;;12.05;4.32;;;;;;;;;;5068825;28;20496;-75